createdAt,value
2023-05-20T00:01:30.048Z,13.01
2023-05-20T00:03:57.941Z,13.12
2023-05-20T00:06:25.272Z,13.08
2023-05-20T00:08:52.326Z,13.08
2023-05-20T00:11:19.342Z,12.99
2023-05-20T00:13:46.347Z,13.12
2023-05-20T00:16:13.430Z,13.15
2023-05-20T00:18:40.644Z,12.81
2023-05-20T00:21:07.765Z,13.19
2023-05-20T00:23:34.838Z,13.03
2023-05-20T00:26:02.046Z,13.20
2023-05-20T00:28:30.623Z,13.04
2023-05-20T00:30:57.784Z,12.95
2023-05-20T00:33:24.854Z,13.07
2023-05-20T00:35:52.162Z,13.02
2023-05-20T00:38:19.338Z,13.02
2023-05-20T00:40:46.641Z,13.02
2023-05-20T00:43:13.777Z,12.95
2023-05-20T00:45:41.608Z,12.98
2023-05-20T00:48:09.842Z,12.95
2023-05-20T00:50:37.299Z,13.02
2023-05-20T00:53:06.000Z,12.97
2023-05-20T00:55:33.382Z,12.91
2023-05-20T00:58:00.920Z,12.94
2023-05-20T01:00:28.003Z,12.97
2023-05-20T01:02:57.040Z,12.95
2023-05-20T01:05:24.473Z,12.83
2023-05-20T01:07:51.773Z,12.86
2023-05-20T01:10:19.060Z,12.96
2023-05-20T01:12:54.422Z,12.93
2023-05-20T01:15:24.414Z,12.90
2023-05-20T01:17:58.096Z,12.91
2023-05-20T01:20:26.209Z,12.83
2023-05-20T01:22:57.071Z,12.84
2023-05-20T01:25:25.294Z,12.90
2023-05-20T01:27:54.368Z,12.90
2023-05-20T01:30:22.344Z,12.86
2023-05-20T01:32:55.329Z,12.85
2023-05-20T01:35:23.284Z,12.76
2023-05-20T01:37:53.170Z,12.73
2023-05-20T01:40:21.573Z,12.84
2023-05-20T01:42:53.362Z,12.81
2023-05-20T01:45:21.560Z,12.82
2023-05-20T01:47:50.240Z,12.81
2023-05-20T01:50:17.425Z,12.80
2023-05-20T01:52:44.577Z,12.78
2023-05-20T01:55:11.846Z,12.81
2023-05-20T01:57:38.945Z,12.82
2023-05-20T02:00:06.966Z,12.83
2023-05-20T02:02:41.363Z,12.83
2023-05-20T02:05:11.252Z,12.84
2023-05-20T02:07:38.522Z,12.84
2023-05-20T02:10:06.500Z,12.84
2023-05-20T02:12:36.937Z,12.75
2023-05-20T02:15:06.505Z,12.83
2023-05-20T02:17:34.815Z,12.76
2023-05-20T02:20:22.080Z,12.77
2023-05-20T02:22:49.239Z,12.67
2023-05-20T02:25:16.407Z,12.73
2023-05-20T02:27:44.696Z,12.72
2023-05-20T02:30:13.242Z,12.64
2023-05-20T02:32:41.658Z,12.66
2023-05-20T02:35:09.532Z,12.63
2023-05-20T02:37:39.130Z,12.17
2023-05-20T02:40:07.205Z,12.65
2023-05-20T02:42:34.306Z,12.57
2023-05-20T02:45:01.387Z,12.52
2023-05-20T02:47:29.047Z,12.68
2023-05-20T02:49:56.642Z,12.70
2023-05-20T02:52:23.740Z,12.69
2023-05-20T02:54:50.953Z,12.73
2023-05-20T02:57:18.902Z,12.76
2023-05-20T02:59:46.220Z,12.74
2023-05-20T03:02:13.496Z,12.61
2023-05-20T03:04:41.197Z,12.68
2023-05-20T03:07:09.154Z,12.66
2023-05-20T03:09:36.769Z,12.65
2023-05-20T03:12:05.587Z,12.66
2023-05-20T03:14:32.747Z,12.52
2023-05-20T03:17:00.273Z,12.59
2023-05-20T03:19:27.593Z,12.47
2023-05-20T03:21:54.952Z,12.60
2023-05-20T03:24:23.639Z,12.60
2023-05-20T03:26:51.033Z,12.62
2023-05-20T03:29:18.461Z,12.62
2023-05-20T03:31:46.533Z,12.59
2023-05-20T03:34:14.148Z,12.54
2023-05-20T03:36:41.596Z,12.56
2023-05-20T03:39:08.850Z,12.66
2023-05-20T03:41:36.243Z,12.70
2023-05-20T03:44:03.799Z,12.73
2023-05-20T03:46:32.750Z,12.67
2023-05-20T03:49:02.177Z,12.73
2023-05-20T03:51:29.348Z,12.67
2023-05-20T03:54:02.761Z,12.74
2023-05-20T03:56:29.844Z,12.73
2023-05-20T03:58:57.278Z,12.65
2023-05-20T04:01:26.064Z,12.69
2023-05-20T04:03:53.711Z,12.58
2023-05-20T04:06:22.714Z,12.69
2023-05-20T04:08:51.164Z,12.72
2023-05-20T04:11:21.808Z,12.73
2023-05-20T04:13:49.139Z,12.69
2023-05-20T04:16:16.862Z,12.68
2023-05-20T04:18:46.201Z,12.73
2023-05-20T04:21:14.238Z,12.77
2023-05-20T04:23:41.864Z,12.79
2023-05-20T04:26:09.156Z,12.82
2023-05-20T04:28:37.902Z,12.88
2023-05-20T04:31:06.188Z,12.87
2023-05-20T04:33:39.745Z,12.96
2023-05-20T04:36:09.998Z,13.01
2023-05-20T04:38:37.492Z,13.01
2023-05-20T04:41:04.895Z,13.07
2023-05-20T04:43:32.065Z,13.03
2023-05-20T04:46:06.214Z,13.10
2023-05-20T04:48:34.586Z,13.19
2023-05-20T04:51:02.340Z,13.20
2023-05-20T04:53:31.997Z,13.24
2023-05-20T04:56:03.439Z,13.20
2023-05-20T04:58:31.905Z,13.29
2023-05-20T05:01:00.260Z,13.34
2023-05-20T05:03:27.741Z,13.42
2023-05-20T05:05:59.110Z,13.40
2023-05-20T05:08:27.161Z,13.50
2023-05-20T05:10:54.566Z,13.63
2023-05-20T05:13:21.792Z,13.68
2023-05-20T05:15:49.370Z,13.67
2023-05-20T05:18:18.722Z,13.64
2023-05-20T05:20:46.578Z,13.72
2023-05-20T05:23:14.359Z,13.74
2023-05-20T05:25:41.832Z,13.77
2023-05-20T05:28:08.871Z,13.82
2023-05-20T05:30:37.683Z,13.88
2023-05-20T05:33:05.947Z,13.80
2023-05-20T05:35:33.427Z,13.91
2023-05-20T05:38:01.052Z,13.87
2023-05-20T05:40:29.378Z,13.99
2023-05-20T05:42:56.466Z,14.12
2023-05-20T05:45:23.596Z,14.18
2023-05-20T05:47:50.848Z,14.30
2023-05-20T05:50:18.134Z,14.29
2023-05-20T05:52:45.198Z,14.41
2023-05-20T05:55:12.932Z,14.37
2023-05-20T05:57:40.093Z,14.56
2023-05-20T06:00:08.160Z,14.59
2023-05-20T06:02:47.967Z,14.61
2023-05-20T06:05:29.708Z,14.67
2023-05-20T06:07:57.456Z,14.71
2023-05-20T06:10:25.281Z,14.72
2023-05-20T06:12:52.710Z,14.93
2023-05-20T06:15:20.448Z,14.92
2023-05-20T06:17:47.770Z,14.89
2023-05-20T06:20:16.377Z,14.73
2023-05-20T06:22:44.267Z,15.00
2023-05-20T06:25:13.463Z,15.15
2023-05-20T06:27:41.401Z,15.18
2023-05-20T06:30:12.036Z,14.94
2023-05-20T06:32:39.165Z,15.22
2023-05-20T06:35:06.750Z,15.27
2023-05-20T06:37:34.273Z,15.29
2023-05-20T06:40:01.997Z,15.30
2023-05-20T06:42:33.127Z,15.44
2023-05-20T06:45:04.828Z,15.44
2023-05-20T06:47:42.694Z,15.64
2023-05-20T06:50:10.914Z,15.72
2023-05-20T06:52:38.057Z,15.75
2023-05-20T06:55:05.885Z,15.99
2023-05-20T06:57:34.416Z,16.12
2023-05-20T07:00:01.810Z,16.12
2023-05-20T07:02:34.051Z,16.27
2023-05-20T07:05:01.499Z,16.40
2023-05-20T07:07:31.873Z,16.64
2023-05-20T07:09:59.165Z,16.59
2023-05-20T07:12:26.352Z,16.57
2023-05-20T07:14:53.409Z,16.57
2023-05-20T07:17:21.545Z,16.31
2023-05-20T07:19:48.641Z,16.71
2023-05-20T07:22:16.061Z,16.57
2023-05-20T07:25:07.062Z,16.93
2023-05-20T07:27:36.851Z,16.92
2023-05-20T07:30:04.724Z,16.94
2023-05-20T07:32:33.726Z,16.98
2023-05-20T07:35:01.574Z,16.89
2023-05-20T07:37:30.725Z,16.85
2023-05-20T07:39:57.850Z,16.87
2023-05-20T07:42:25.523Z,17.05
2023-05-20T07:44:58.190Z,17.17
2023-05-20T07:47:25.522Z,17.30
2023-05-20T07:49:53.493Z,17.38
2023-05-20T07:52:21.046Z,17.43
2023-05-20T07:54:48.388Z,17.31
2023-05-20T07:57:15.622Z,17.30
2023-05-20T07:59:42.913Z,17.20
2023-05-20T08:02:10.136Z,17.14
2023-05-20T08:04:37.358Z,17.22
2023-05-20T08:07:04.867Z,17.25
2023-05-20T08:09:41.730Z,17.34
2023-05-20T08:12:08.848Z,17.47
2023-05-20T08:14:36.014Z,17.52
2023-05-20T08:17:04.142Z,17.49
2023-05-20T08:19:31.576Z,17.46
2023-05-20T08:21:58.745Z,17.46
2023-05-20T08:24:25.838Z,17.35
2023-05-20T08:26:53.618Z,17.43
2023-05-20T08:29:23.914Z,17.33
2023-05-20T08:31:52.356Z,17.31
2023-05-20T08:34:20.334Z,17.09
2023-05-20T08:36:47.422Z,17.18
2023-05-20T08:39:15.381Z,17.17
2023-05-20T08:41:42.814Z,17.04
2023-05-20T08:44:11.749Z,16.99
2023-05-20T08:46:41.771Z,16.93
2023-05-20T08:49:09.048Z,16.89
2023-05-20T08:51:37.681Z,16.84
2023-05-20T08:54:05.276Z,16.88
2023-05-20T08:56:33.999Z,16.94
2023-05-20T08:59:01.507Z,16.93
2023-05-20T09:01:28.803Z,16.84
2023-05-20T09:03:56.211Z,16.96
2023-05-20T09:06:24.263Z,16.87
2023-05-20T09:08:52.058Z,16.87
2023-05-20T09:11:21.871Z,16.95
2023-05-20T09:13:50.560Z,17.02
2023-05-20T09:16:17.721Z,17.07
2023-05-20T09:18:44.863Z,17.11
2023-05-20T09:21:11.975Z,17.15
2023-05-20T09:23:39.102Z,17.23
2023-05-20T09:26:06.956Z,17.30
2023-05-20T09:28:36.166Z,17.23
2023-05-20T09:31:03.348Z,17.18
2023-05-20T09:33:32.318Z,17.11
2023-05-20T09:36:08.268Z,17.16
2023-05-20T09:38:39.853Z,16.99
2023-05-20T09:41:11.804Z,16.93
2023-05-20T09:43:40.606Z,16.88
2023-05-20T09:46:09.331Z,16.80
2023-05-20T09:48:40.007Z,16.75
2023-05-20T09:51:08.165Z,16.60
2023-05-20T09:53:36.302Z,16.34
2023-05-20T09:56:03.646Z,16.66
2023-05-20T09:58:31.582Z,16.61
2023-05-20T10:00:58.931Z,16.59
2023-05-20T10:03:28.339Z,16.50
2023-05-20T10:06:34.353Z,16.69
2023-05-20T10:09:37.944Z,16.65
2023-05-20T10:12:14.513Z,16.60
2023-05-20T10:15:07.459Z,16.69
2023-05-20T10:18:09.184Z,16.55
2023-05-20T10:20:49.976Z,16.59
2023-05-20T10:23:43.462Z,16.71
2023-05-20T10:26:11.233Z,16.57
2023-05-20T10:28:41.045Z,16.67
2023-05-20T10:31:24.195Z,16.74
2023-05-20T10:33:53.566Z,16.77
2023-05-20T10:36:28.063Z,16.91
2023-05-20T10:38:59.376Z,17.01
2023-05-20T10:41:29.489Z,17.01
2023-05-20T10:44:06.840Z,16.88
2023-05-20T10:46:53.794Z,16.89
2023-05-20T10:49:26.847Z,16.95
2023-05-20T10:51:55.703Z,16.88
2023-05-20T10:54:23.483Z,17.05
2023-05-20T10:56:54.274Z,17.14
2023-05-20T10:59:22.364Z,17.16
2023-05-20T11:01:49.737Z,17.04
2023-05-20T11:04:19.921Z,17.09
2023-05-20T11:06:54.414Z,17.08
2023-05-20T11:09:22.538Z,16.98
2023-05-20T11:11:51.496Z,16.97
2023-05-20T11:14:20.251Z,16.92
2023-05-20T11:16:51.317Z,16.95
2023-05-20T11:19:19.273Z,16.88
2023-05-20T11:21:47.320Z,17.00
2023-05-20T11:24:22.262Z,16.97
2023-05-20T11:26:49.433Z,17.02
2023-05-20T11:29:16.637Z,16.89
2023-05-20T11:31:43.705Z,16.98
2023-05-20T11:34:10.967Z,16.93
2023-05-20T11:36:42.731Z,17.02
2023-05-20T11:39:14.974Z,17.05
2023-05-20T11:41:44.950Z,17.01
2023-05-20T11:44:15.931Z,17.10
2023-05-20T11:46:44.638Z,17.17
2023-05-20T11:49:13.840Z,17.15
2023-05-20T11:51:41.681Z,17.28
2023-05-20T11:54:09.177Z,17.20
2023-05-20T11:56:41.568Z,17.34
2023-05-20T11:59:10.838Z,17.39
2023-05-20T12:01:43.535Z,17.59
2023-05-20T12:04:12.117Z,17.35
2023-05-20T12:06:40.185Z,17.61
2023-05-20T12:09:08.841Z,17.60
2023-05-20T12:11:37.495Z,17.54
2023-05-20T12:14:04.885Z,17.41
2023-05-20T12:16:36.684Z,17.43
2023-05-20T12:19:04.506Z,17.37
2023-05-20T12:21:32.295Z,17.40
2023-05-20T12:24:00.026Z,17.36
2023-05-20T12:26:29.086Z,17.32
2023-05-20T12:28:56.634Z,17.31
2023-05-20T12:31:24.579Z,17.33
2023-05-20T12:33:51.756Z,17.25
2023-05-20T12:36:19.859Z,17.32
2023-05-20T12:38:47.433Z,17.24
2023-05-20T12:41:14.673Z,17.32
2023-05-20T12:43:41.783Z,17.37
2023-05-20T12:46:08.908Z,17.24
2023-05-20T12:48:37.072Z,17.44
2023-05-20T12:51:04.516Z,17.47
2023-05-20T12:53:31.650Z,17.44
2023-05-20T12:55:58.765Z,17.43
2023-05-20T12:58:25.855Z,17.33
2023-05-20T13:00:52.948Z,17.43
2023-05-20T13:03:20.227Z,17.41
2023-05-20T13:05:47.477Z,17.33
2023-05-20T13:08:15.031Z,17.02
2023-05-20T13:10:42.277Z,17.18
2023-05-20T13:13:09.383Z,17.21
2023-05-20T13:15:36.983Z,17.27
2023-05-20T13:18:06.864Z,17.27
2023-05-20T13:20:34.483Z,17.03
2023-05-20T13:23:01.947Z,17.37
2023-05-20T13:25:29.402Z,17.38
2023-05-20T13:27:56.524Z,17.33
2023-05-20T13:30:23.602Z,17.19
2023-05-20T13:32:50.758Z,17.04
2023-05-20T13:35:18.375Z,17.04
2023-05-20T13:37:45.589Z,16.99
2023-05-20T13:40:13.139Z,16.93
2023-05-20T13:42:40.220Z,16.82
2023-05-20T13:45:07.919Z,16.86
2023-05-20T13:47:35.023Z,16.92
2023-05-20T13:50:06.514Z,16.92
2023-05-20T13:52:33.578Z,16.87
2023-05-20T13:55:00.644Z,16.84
2023-05-20T13:57:27.926Z,16.81
2023-05-20T13:59:54.905Z,16.82
2023-05-20T14:02:22.187Z,16.79
2023-05-20T14:04:49.301Z,16.76
2023-05-20T14:07:16.602Z,16.92
2023-05-20T14:09:43.737Z,16.70
2023-05-20T14:12:11.061Z,16.71
2023-05-20T14:14:38.170Z,16.63
2023-05-20T14:17:05.257Z,16.82
2023-05-20T14:19:32.490Z,16.82
2023-05-20T14:22:01.329Z,16.82
2023-05-20T14:24:28.755Z,16.84
2023-05-20T14:26:56.380Z,16.76
2023-05-20T14:29:23.501Z,16.87
2023-05-20T14:31:50.793Z,16.84
2023-05-20T14:34:18.073Z,16.89
2023-05-20T14:36:45.250Z,16.85
2023-05-20T14:39:12.341Z,16.74
2023-05-20T14:41:39.444Z,16.92
2023-05-20T14:44:06.801Z,16.97
2023-05-20T14:46:34.177Z,16.99
2023-05-20T14:49:01.593Z,17.01
2023-05-20T14:51:28.640Z,16.94
2023-05-20T14:53:55.749Z,16.91
2023-05-20T14:56:23.241Z,16.83
2023-05-20T14:58:50.277Z,16.92
2023-05-20T15:01:17.751Z,16.87
2023-05-20T15:03:44.932Z,16.92
2023-05-20T15:06:13.397Z,16.93
2023-05-20T15:08:40.460Z,16.80
2023-05-20T15:11:07.497Z,16.98
2023-05-20T15:13:34.517Z,17.02
2023-05-20T15:16:01.672Z,16.97
2023-05-20T15:18:29.150Z,17.10
2023-05-20T15:20:56.169Z,17.12
2023-05-20T15:23:23.251Z,17.13
2023-05-20T15:25:50.540Z,17.04
2023-05-20T15:28:19.866Z,17.12
2023-05-20T15:30:51.671Z,17.15
2023-05-20T15:33:18.837Z,17.13
2023-05-20T15:35:45.937Z,17.07
2023-05-20T15:38:14.176Z,16.88
2023-05-20T15:40:41.508Z,16.97
2023-05-20T15:43:08.642Z,16.86
2023-05-20T15:45:35.837Z,16.87
2023-05-20T15:48:02.942Z,16.72
2023-05-20T15:50:30.204Z,16.81
2023-05-20T15:52:57.352Z,16.73
2023-05-20T15:55:24.500Z,16.70
2023-05-20T15:57:51.787Z,16.65
2023-05-20T16:00:20.355Z,16.68
2023-05-20T16:02:48.135Z,16.67
2023-05-20T16:05:15.823Z,16.35
2023-05-20T16:07:42.981Z,16.49
2023-05-20T16:10:10.461Z,16.53
2023-05-20T16:12:37.583Z,16.58
2023-05-20T16:15:05.150Z,16.53
2023-05-20T16:17:32.764Z,16.28
2023-05-20T16:19:59.901Z,16.39
2023-05-20T16:22:26.951Z,16.48
2023-05-20T16:24:54.204Z,16.44
2023-05-20T16:27:21.298Z,16.40
2023-05-20T16:29:49.931Z,16.34
2023-05-20T16:32:16.972Z,16.25
2023-05-20T16:34:43.982Z,16.08
2023-05-20T16:37:11.980Z,15.85
2023-05-20T16:39:39.212Z,15.74
2023-05-20T16:42:09.007Z,15.91
2023-05-20T16:44:39.347Z,15.79
2023-05-20T16:47:07.502Z,15.70
2023-05-20T16:49:34.845Z,15.62
2023-05-20T16:52:02.009Z,15.63
2023-05-20T16:54:29.183Z,15.57
2023-05-20T16:56:56.586Z,15.54
2023-05-20T16:59:25.876Z,15.52
2023-05-20T17:01:53.034Z,15.51
2023-05-20T17:04:20.100Z,15.44
2023-05-20T17:06:49.940Z,15.46
2023-05-20T17:09:17.202Z,15.41
2023-05-20T17:11:44.733Z,15.37
2023-05-20T17:14:11.949Z,15.26
2023-05-20T17:16:39.081Z,15.42
2023-05-20T17:19:06.302Z,15.40
2023-05-20T17:21:34.723Z,15.35
2023-05-20T17:24:01.813Z,15.30
2023-05-20T17:26:28.937Z,15.27
2023-05-20T17:28:56.140Z,15.23
2023-05-20T17:31:23.223Z,15.09
2023-05-20T17:33:50.514Z,15.10
2023-05-20T17:36:17.834Z,14.96
2023-05-20T17:38:44.917Z,14.94
2023-05-20T17:41:12.027Z,14.81
2023-05-20T17:43:39.150Z,14.70
2023-05-20T17:46:06.615Z,14.55
2023-05-20T17:48:33.698Z,14.27
2023-05-20T17:51:00.892Z,14.33
2023-05-20T17:53:28.118Z,14.32
2023-05-20T17:55:55.379Z,14.31
2023-05-20T17:58:25.063Z,14.25
2023-05-20T18:00:52.403Z,14.14
2023-05-20T18:03:19.975Z,14.10
2023-05-20T18:05:47.756Z,14.03
2023-05-20T18:08:14.995Z,13.90
2023-05-20T18:10:42.122Z,13.87
2023-05-20T18:13:09.319Z,13.80
2023-05-20T18:15:36.511Z,13.73
2023-05-20T18:18:03.770Z,13.64
2023-05-20T18:20:30.978Z,13.56
2023-05-20T18:22:58.742Z,13.52
2023-05-20T18:25:26.201Z,13.50
2023-05-20T18:27:53.594Z,13.48
2023-05-20T18:30:20.715Z,13.43
2023-05-20T18:32:47.870Z,13.39
2023-05-20T18:35:15.019Z,13.39
2023-05-20T18:37:42.165Z,13.28
2023-05-20T18:40:09.636Z,13.25
2023-05-20T18:42:37.322Z,13.38
2023-05-20T18:45:04.863Z,13.36
2023-05-20T18:47:32.753Z,13.27
2023-05-20T18:49:59.956Z,13.39
2023-05-20T18:52:27.055Z,13.39
2023-05-20T18:54:54.100Z,13.34
2023-05-20T18:57:22.792Z,13.25
2023-05-20T18:59:49.913Z,13.27
2023-05-20T19:02:17.484Z,13.27
2023-05-20T19:04:44.921Z,13.30
2023-05-20T19:07:12.106Z,13.25
2023-05-20T19:09:39.152Z,13.18
2023-05-20T19:12:06.863Z,13.24
2023-05-20T19:14:33.946Z,13.28
2023-05-20T19:17:01.372Z,13.32
2023-05-20T19:19:28.531Z,13.32
2023-05-20T19:21:55.781Z,13.24
2023-05-20T19:24:22.923Z,13.25
2023-05-20T19:26:50.204Z,13.22
2023-05-20T19:29:17.290Z,12.92
2023-05-20T19:31:44.865Z,13.17
2023-05-20T19:34:11.924Z,13.14
2023-05-20T19:36:40.460Z,13.13
2023-05-20T19:39:08.112Z,13.13
2023-05-20T19:41:35.352Z,13.04
2023-05-20T19:44:02.599Z,13.10
2023-05-20T19:46:29.851Z,13.17
2023-05-20T19:48:58.317Z,13.11
2023-05-20T19:51:25.820Z,13.29
2023-05-20T19:53:53.019Z,13.27
2023-05-20T19:56:22.009Z,13.19
2023-05-20T19:58:49.084Z,13.30
2023-05-20T20:01:19.549Z,13.29
2023-05-20T20:03:46.675Z,13.21
2023-05-20T20:06:13.745Z,13.07
2023-05-20T20:08:41.762Z,13.10
2023-05-20T20:11:09.367Z,13.07
2023-05-20T20:13:36.491Z,13.06
2023-05-20T20:16:03.708Z,13.01
2023-05-20T20:18:32.451Z,12.98
2023-05-20T20:21:06.086Z,12.98
2023-05-20T20:23:33.493Z,12.99
2023-05-20T20:26:00.595Z,13.03
2023-05-20T20:28:27.778Z,13.01
2023-05-20T20:30:54.876Z,12.98
2023-05-20T20:33:22.076Z,12.97
2023-05-20T20:35:49.302Z,12.90
2023-05-20T20:38:16.420Z,12.84
2023-05-20T20:40:44.983Z,12.72
2023-05-20T20:43:20.549Z,12.73
2023-05-20T20:45:50.783Z,12.72
2023-05-20T20:48:18.987Z,12.63
2023-05-20T20:50:48.113Z,12.73
2023-05-20T20:53:18.470Z,12.62
2023-05-20T20:55:51.375Z,12.84
2023-05-20T20:58:19.017Z,12.83
2023-05-20T21:00:48.794Z,12.81
2023-05-20T21:03:16.311Z,12.82
2023-05-20T21:05:44.569Z,12.67
2023-05-20T21:08:13.361Z,12.80
2023-05-20T21:10:40.765Z,12.78
2023-05-20T21:13:08.188Z,12.78
2023-05-20T21:15:35.580Z,12.56
2023-05-20T21:18:02.961Z,12.74
2023-05-20T21:20:30.126Z,12.73
2023-05-20T21:22:57.153Z,12.61
2023-05-20T21:25:24.236Z,12.66
2023-05-20T21:27:51.630Z,12.68
2023-05-20T21:30:20.186Z,12.65
2023-05-20T21:32:47.398Z,12.67
2023-05-20T21:35:14.861Z,12.67
2023-05-20T21:37:42.204Z,12.57
2023-05-20T21:40:09.624Z,12.71
2023-05-20T21:42:36.842Z,12.73
2023-05-20T21:45:04.306Z,12.54
2023-05-20T21:47:33.410Z,12.68
2023-05-20T21:50:00.544Z,12.67
2023-05-20T21:52:27.721Z,12.68
2023-05-20T21:54:55.065Z,12.65
2023-05-20T21:57:22.333Z,12.64
2023-05-20T21:59:49.453Z,12.62
2023-05-20T22:02:17.663Z,12.65
2023-05-20T22:04:44.737Z,12.67
2023-05-20T22:07:11.836Z,12.66
2023-05-20T22:09:38.861Z,12.32
2023-05-20T22:12:05.983Z,12.42
2023-05-20T22:14:33.108Z,12.50
2023-05-20T22:17:00.190Z,12.42
2023-05-20T22:19:28.178Z,12.52
2023-05-20T22:21:55.770Z,12.44
2023-05-20T22:24:23.097Z,12.28
2023-05-20T22:26:50.322Z,12.45
2023-05-20T22:29:17.520Z,12.33
2023-05-20T22:31:44.825Z,12.42
2023-05-20T22:34:12.067Z,12.41
2023-05-20T22:36:39.610Z,12.39
2023-05-20T22:39:07.201Z,12.31
2023-05-20T22:41:34.287Z,12.42
2023-05-20T22:44:01.506Z,12.36
2023-05-20T22:46:28.779Z,12.36
2023-05-20T22:48:58.455Z,12.56
2023-05-20T22:51:25.585Z,12.63
2023-05-20T22:53:52.852Z,12.66
2023-05-20T22:56:20.076Z,12.59
2023-05-20T22:58:47.391Z,12.63
2023-05-20T23:01:16.826Z,12.60
2023-05-20T23:03:47.311Z,12.50
2023-05-20T23:06:14.413Z,12.58
2023-05-20T23:08:43.036Z,12.59
2023-05-20T23:11:10.423Z,12.59
2023-05-20T23:13:37.617Z,12.59
2023-05-20T23:16:06.149Z,12.53
2023-05-20T23:18:33.502Z,12.46
2023-05-20T23:21:00.804Z,12.58
2023-05-20T23:23:31.236Z,12.49
2023-05-20T23:26:00.031Z,12.63
2023-05-20T23:28:27.601Z,12.64
2023-05-20T23:30:54.932Z,12.63
2023-05-20T23:33:25.795Z,12.42
2023-05-20T23:35:53.468Z,12.60
2023-05-20T23:38:21.261Z,12.61
2023-05-20T23:40:49.392Z,12.22
2023-05-20T23:43:16.886Z,12.62
2023-05-20T23:45:43.979Z,12.57
2023-05-20T23:48:13.317Z,12.58
2023-05-20T23:50:40.888Z,12.63
2023-05-20T23:53:08.111Z,12.53
2023-05-20T23:55:35.516Z,12.63
2023-05-20T23:58:02.976Z,12.60
